Time;durP1;ratioP1;P1;durP2;ratioP2;P2;SDS_P1;SDS_P2;PMS_P1;PMS_P2;Temp;Humidity;BMP_temperature;BMP_pressure;BME280_temperature;BME280_humidity;BME280_pressure;Samples;Min_cycle;Max_cycle;Signal;HPM_P1;HPM_P2
2021/03/29 00:01:33;;;;;;;10.52;3.83;;;10.70;80.60;;;;;;5045632;28;20039;-83
2021/03/29 00:03:58;;;;;;;9.35;3.45;;;10.70;80.50;;;;;;5040104;28;20029;-83
2021/03/29 00:06:26;;;;;;;12.18;4.57;;;10.70;80.50;;;;;;5036839;28;20025;-83
2021/03/29 00:08:54;;;;;;;10.57;3.63;;;10.70;80.60;;;;;;5053186;28;20082;-84
2021/03/29 00:11:21;;;;;;;12.93;4.15;;;10.70;80.50;;;;;;5053226;28;20032;-83
2021/03/29 00:13:48;;;;;;;14.43;3.67;;;10.70;80.40;;;;;;5052755;28;20077;-84
2021/03/29 00:16:17;;;;;;;11.40;3.50;;;10.70;80.40;;;;;;5040865;28;20045;-84
2021/03/29 00:18:43;;;;;;;13.20;4.35;;;10.70;80.40;;;;;;5040662;28;20032;-84
2021/03/29 00:21:09;;;;;;;10.38;3.70;;;10.70;80.20;;;;;;5026491;28;20061;-83
2021/03/29 00:23:36;;;;;;;12.40;4.05;;;10.70;80.00;;;;;;5073570;28;20060;-84
2021/03/29 00:26:04;;;;;;;11.32;3.90;;;10.70;80.00;;;;;;5056520;28;20085;-85
2021/03/29 00:28:30;;;;;;;10.35;3.92;;;10.70;80.20;;;;;;5056616;28;20036;-84
2021/03/29 00:30:56;;;;;;;13.68;4.43;;;10.70;80.20;;;;;;5023740;28;20024;-83
2021/03/29 00:33:24;;;;;;;9.45;3.88;;;10.70;80.20;;;;;;5056463;28;20366;-84
2021/03/29 00:35:50;;;;;;;15.70;4.20;;;10.70;80.30;;;;;;5056251;28;20048;-84
2021/03/29 00:38:18;;;;;;;9.90;3.60;;;10.60;80.20;;;;;;5036713;28;20124;-83
2021/03/29 00:40:51;;;;;;;10.13;3.75;;;10.60;80.20;;;;;;5043187;28;20174;-85
2021/03/29 00:43:18;;;;;;;10.98;4.43;;;10.60;80.30;;;;;;5056700;28;20051;-82
2021/03/29 00:45:46;;;;;;;9.30;3.38;;;10.70;80.30;;;;;;5056384;28;20025;-90
2021/03/29 00:48:15;;;;;;;13.20;5.05;;;10.60;80.30;;;;;;5061937;28;20032;-82
2021/03/29 00:50:43;;;;;;;12.10;3.85;;;10.60;80.40;;;;;;5050211;28;20025;-83
2021/03/29 00:53:11;;;;;;;13.40;4.03;;;10.50;80.70;;;;;;5041467;28;20389;-85
2021/03/29 00:55:39;;;;;;;13.98;4.68;;;10.50;80.90;;;;;;5027487;28;20118;-85
2021/03/29 00:58:05;;;;;;;14.20;4.13;;;10.40;81.10;;;;;;5052414;28;20460;-84
2021/03/29 01:00:39;;;;;;;15.05;5.30;;;10.40;81.40;;;;;;5028430;28;20021;-83
2021/03/29 01:03:12;;;;;;;15.95;4.32;;;10.40;81.70;;;;;;5047620;28;20124;-81
2021/03/29 01:05:38;;;;;;;15.30;4.47;;;10.40;81.80;;;;;;5051614;28;20013;-81
2021/03/29 01:08:05;;;;;;;15.00;5.40;;;10.40;81.90;;;;;;5046906;28;20020;-81
2021/03/29 01:10:31;;;;;;;15.63;3.95;;;10.40;81.90;;;;;;5055726;28;20033;-81
2021/03/29 01:13:05;;;;;;;16.20;4.65;;;10.40;82.00;;;;;;5022843;28;20079;-82
2021/03/29 01:15:32;;;;;;;14.55;4.68;;;10.40;82.00;;;;;;5056014;28;20020;-82
2021/03/29 01:18:00;;;;;;;14.50;5.03;;;10.40;82.20;;;;;;5055711;28;20036;-82
2021/03/29 01:20:48;;;;;;;16.05;4.45;;;10.40;82.10;;;;;;5055597;28;20028;-81
2021/03/29 01:23:16;;;;;;;16.30;5.18;;;10.40;82.30;;;;;;5044944;28;20021;-81
2021/03/29 01:25:41;;;;;;;13.57;4.13;;;10.30;82.30;;;;;;5055721;28;20107;-82
2021/03/29 01:28:11;;;;;;;13.07;4.43;;;10.40;82.40;;;;;;5073042;28;20048;-82
2021/03/29 01:30:38;;;;;;;16.48;4.80;;;10.30;82.50;;;;;;5042418;28;20025;-81
2021/03/29 01:33:07;;;;;;;13.88;4.07;;;10.30;82.70;;;;;;5067343;28;20025;-82
2021/03/29 01:35:36;;;;;;;17.13;4.43;;;10.20;82.70;;;;;;5035454;28;20099;-82
2021/03/29 01:38:03;;;;;;;13.48;4.88;;;10.20;82.80;;;;;;5071551;28;20032;-81
2021/03/29 01:40:29;;;;;;;15.23;4.85;;;10.30;82.80;;;;;;5028848;28;20040;-82
2021/03/29 01:42:55;;;;;;;16.05;5.22;;;10.20;82.70;;;;;;5018652;28;20029;-81
2021/03/29 01:45:22;;;;;;;11.52;3.95;;;10.30;82.40;;;;;;5035783;28;20035;-82
2021/03/29 01:47:48;;;;;;;14.85;4.50;;;10.30;82.20;;;;;;5018931;28;20029;-89
2021/03/29 01:50:18;;;;;;;13.48;4.68;;;10.40;82.00;;;;;;5035616;28;20063;-82
2021/03/29 01:52:44;;;;;;;13.55;4.55;;;10.40;81.80;;;;;;5035365;28;20037;-83
2021/03/29 01:55:11;;;;;;;15.15;4.22;;;10.40;81.50;;;;;;5018840;28;20485;-82
2021/03/29 01:57:37;;;;;;;9.23;3.83;;;10.50;81.30;;;;;;5029980;28;20033;-82
2021/03/29 02:00:31;;;;;;;12.93;3.55;;;10.60;81.30;;;;;;5058758;28;20031;-83
2021/03/29 02:03:04;;;;;;;11.13;4.20;;;10.60;80.90;;;;;;5039467;28;20056;-83
2021/03/29 02:05:30;;;;;;;12.32;4.10;;;10.60;80.50;;;;;;5049346;28;20386;-83
2021/03/29 02:07:56;;;;;;;17.45;4.25;;;10.60;80.40;;;;;;5018337;28;20025;-84
2021/03/29 02:10:29;;;;;;;12.32;4.35;;;10.60;80.30;;;;;;5048781;28;20024;-83
2021/03/29 02:12:59;;;;;;;15.30;4.78;;;10.60;80.30;;;;;;5034948;28;20393;-82
2021/03/29 02:15:25;;;;;;;10.35;3.60;;;10.70;80.20;;;;;;5032723;28;20452;-83
2021/03/29 02:17:54;;;;;;;11.15;4.05;;;10.70;80.20;;;;;;5034638;28;20412;-83
2021/03/29 02:20:23;;;;;;;10.60;3.60;;;10.70;79.90;;;;;;5068261;28;20460;-82
2021/03/29 02:22:50;;;;;;;13.85;4.60;;;10.70;80.00;;;;;;5072284;28;20032;-90
2021/03/29 02:25:18;;;;;;;13.60;4.30;;;10.60;80.00;;;;;;5054915;28;20028;-84
2021/03/29 02:27:47;;;;;;;9.70;3.60;;;10.60;79.80;;;;;;5054564;28;20032;-83
2021/03/29 02:30:16;;;;;;;14.27;5.18;;;10.60;80.00;;;;;;5054656;28;20017;-83
2021/03/29 02:32:43;;;;;;;12.55;3.80;;;10.60;79.90;;;;;;5072198;28;20020;-84
2021/03/29 02:35:11;;;;;;;14.65;4.50;;;10.70;80.00;;;;;;5054144;28;20575;-85
2021/03/29 02:37:45;;;;;;;12.73;5.10;;;10.70;79.80;;;;;;5020025;28;20048;-82
2021/03/29 02:40:12;;;;;;;9.45;3.88;;;10.60;79.80;;;;;;5034167;28;20025;-83
2021/03/29 02:42:38;;;;;;;15.27;4.05;;;10.60;79.80;;;;;;5051387;28;20020;-83
2021/03/29 02:45:06;;;;;;;12.10;3.67;;;10.60;79.80;;;;;;5045369;28;20442;-83
2021/03/29 02:47:33;;;;;;;9.95;3.78;;;10.60;79.90;;;;;;5047664;28;20123;-83
2021/03/29 02:50:00;;;;;;;14.30;4.68;;;10.60;79.90;;;;;;5017511;28;20021;-82
2021/03/29 02:52:28;;;;;;;13.43;4.97;;;10.60;79.90;;;;;;5027898;28;20021;-83
2021/03/29 02:54:55;;;;;;;11.00;3.85;;;10.60;79.90;;;;;;5020344;28;20080;-82
2021/03/29 02:57:22;;;;;;;18.77;5.68;;;10.50;80.00;;;;;;5046205;28;20068;-85
2021/03/29 02:59:48;;;;;;;13.07;5.00;;;10.50;80.00;;;;;;5053672;28;20392;-82
2021/03/29 03:02:15;;;;;;;12.75;4.72;;;10.50;80.20;;;;;;5049990;28;20488;-83
2021/03/29 03:04:41;;;;;;;12.60;5.63;;;10.50;80.10;;;;;;5053797;28;20070;-82
2021/03/29 03:07:08;;;;;;;11.57;5.32;;;10.50;80.10;;;;;;5049927;28;20481;-83
2021/03/29 03:09:34;;;;;;;13.38;5.97;;;10.50;80.20;;;;;;5033851;28;20029;-82
2021/03/29 03:12:00;;;;;;;19.38;7.22;;;10.40;80.30;;;;;;5036593;28;20016;-83
2021/03/29 03:14:27;;;;;;;20.63;7.80;;;10.40;80.20;;;;;;5033837;28;20060;-81
2021/03/29 03:16:53;;;;;;;16.42;7.57;;;10.40;80.50;;;;;;5049202;28;20036;-82
2021/03/29 03:19:19;;;;;;;18.30;7.07;;;10.40;80.60;;;;;;5053659;28;20029;-83
2021/03/29 03:21:45;;;;;;;17.88;7.13;;;10.30;80.70;;;;;;5024104;28;20567;-82
2021/03/29 03:24:11;;;;;;;17.85;6.90;;;10.20;81.00;;;;;;5035963;28;20063;-82
2021/03/29 03:26:37;;;;;;;20.27;7.40;;;10.10;81.20;;;;;;5042975;28;20022;-85
2021/03/29 03:29:03;;;;;;;13.23;6.38;;;10.20;81.20;;;;;;5049551;28;20104;-84
2021/03/29 03:31:29;;;;;;;16.38;6.55;;;10.20;81.20;;;;;;5074982;28;20033;-83
2021/03/29 03:33:55;;;;;;;16.17;6.13;;;10.20;81.20;;;;;;5080059;28;20067;-92
2021/03/29 03:36:24;;;;;;;15.50;6.00;;;10.20;81.30;;;;;;5061097;28;20127;-86
2021/03/29 03:38:51;;;;;;;18.95;6.72;;;10.10;81.40;;;;;;5073903;28;20025;-83
2021/03/29 03:41:26;;;;;;;15.68;6.22;;;10.10;81.60;;;;;;5056068;28;20093;-84
2021/03/29 03:43:54;;;;;;;17.40;5.68;;;10.10;81.70;;;;;;5059564;28;20025;-82
2021/03/29 03:46:38;;;;;;;13.40;5.35;;;10.10;81.80;;;;;;5040171;28;20017;-82
2021/03/29 03:49:08;;;;;;;16.85;5.72;;;10.10;81.80;;;;;;5033532;28;20376;-82
2021/03/29 03:51:34;;;;;;;15.40;4.85;;;10.00;81.80;;;;;;5048896;28;20032;-86
2021/03/29 03:54:01;;;;;;;11.95;4.97;;;10.00;81.80;;;;;;5027890;28;20025;-82
2021/03/29 03:56:32;;;;;;;11.98;4.47;;;10.10;81.80;;;;;;5036342;28;20064;-83
2021/03/29 03:58:57;;;;;;;;;;;10.10;81.90;;;;;;5048940;28;20024;-82
2021/03/29 04:01:23;;;;;;;12.27;4.90;;;10.10;82.00;;;;;;5054054;28;20391;-83
2021/03/29 04:03:49;;;;;;;14.05;4.70;;;10.10;82.10;;;;;;5023523;28;20077;-83
2021/03/29 04:06:15;;;;;;;13.77;4.38;;;10.00;82.10;;;;;;5056819;28;20060;-82
2021/03/29 04:08:43;;;;;;;15.25;4.68;;;10.00;82.10;;;;;;5053391;28;20116;-82
2021/03/29 04:11:09;;;;;;;10.88;4.45;;;10.00;82.30;;;;;;5046956;28;20147;-83
2021/03/29 04:13:35;;;;;;;11.75;4.45;;;10.00;82.20;;;;;;5022282;28;20373;-82
2021/03/29 04:16:03;;;;;;;12.98;3.75;;;10.00;82.40;;;;;;5037197;28;20444;-82
2021/03/29 04:18:30;;;;;;;13.13;4.10;;;10.00;82.50;;;;;;5069191;28;20029;-83
2021/03/29 04:20:57;;;;;;;10.75;3.75;;;10.00;82.40;;;;;;5057083;28;20033;-82
2021/03/29 04:23:23;;;;;;;13.18;4.63;;;10.00;82.40;;;;;;5027952;28;20029;-82
2021/03/29 04:25:50;;;;;;;12.85;4.85;;;10.00;82.30;;;;;;5036918;28;20023;-82
2021/03/29 04:28:16;;;;;;;9.00;3.80;;;10.00;82.40;;;;;;5036925;28;20040;-81
2021/03/29 04:30:42;;;;;;;12.90;4.82;;;10.00;82.30;;;;;;5036630;28;20033;-83
2021/03/29 04:33:07;;;;;;;17.63;4.00;;;10.00;82.40;;;;;;5039940;28;20024;-80
2021/03/29 04:35:33;;;;;;;11.35;3.67;;;10.00;82.40;;;;;;5059569;28;20049;-82
2021/03/29 04:37:59;;;;;;;13.55;4.18;;;10.00;82.40;;;;;;5061304;28;20418;-81
2021/03/29 04:40:27;;;;;;;12.48;3.40;;;10.00;82.40;;;;;;5061473;28;20071;-82
2021/03/29 04:42:53;;;;;;;13.05;3.75;;;10.00;82.30;;;;;;5059078;28;20077;-84
2021/03/29 04:45:20;;;;;;;16.35;4.45;;;10.10;82.30;;;;;;5075153;28;20469;-82
2021/03/29 04:47:46;;;;;;;10.90;3.60;;;10.00;82.40;;;;;;5053248;28;20111;-83
2021/03/29 04:50:14;;;;;;;12.13;4.15;;;10.00;82.60;;;;;;5028847;28;20119;-82
2021/03/29 04:52:39;;;;;;;19.35;5.30;;;10.00;82.60;;;;;;5072354;28;20077;-82
2021/03/29 04:55:06;;;;;;;13.55;4.30;;;10.00;82.50;;;;;;5036179;28;20029;-82
2021/03/29 04:57:32;;;;;;;10.93;3.42;;;10.00;82.70;;;;;;5050182;28;20052;-82
2021/03/29 04:59:57;;;;;;;13.70;4.55;;;10.00;82.80;;;;;;5036158;28;20067;-83
2021/03/29 05:02:23;;;;;;;14.13;4.18;;;10.00;82.70;;;;;;5026699;28;20028;-82
2021/03/29 05:04:49;;;;;;;11.45;3.40;;;10.00;82.70;;;;;;5042452;28;20033;-82
2021/03/29 05:07:14;;;;;;;10.88;3.38;;;10.00;82.70;;;;;;5005657;28;20487;-83
2021/03/29 05:09:40;;;;;;;14.45;4.15;;;10.00;82.70;;;;;;5054067;28;20024;-83
2021/03/29 05:12:09;;;;;;;12.65;3.72;;;10.00;82.70;;;;;;5039307;28;20046;-84
2021/03/29 05:14:39;;;;;;;7.80;3.60;;;10.00;82.60;;;;;;5046000;28;20040;-83
2021/03/29 05:17:07;;;;;;;12.77;3.63;;;10.10;82.50;;;;;;5035967;28;20397;-83
2021/03/29 05:19:32;;;;;;;11.68;3.50;;;10.00;82.50;;;;;;5035835;28;20040;-82
2021/03/29 05:21:59;;;;;;;6.05;3.13;;;10.10;82.60;;;;;;5032903;28;20016;-82
2021/03/29 05:24:25;;;;;;;17.05;3.65;;;10.00;82.50;;;;;;5036109;28;20507;-82
2021/03/29 05:26:51;;;;;;;11.43;3.88;;;10.00;82.80;;;;;;5049287;28;20032;-81
2021/03/29 05:29:17;;;;;;;10.95;3.72;;;10.00;82.80;;;;;;5042279;28;20020;-84
2021/03/29 05:31:43;;;;;;;12.55;3.75;;;10.00;83.00;;;;;;5036703;28;20107;-83
2021/03/29 05:34:11;;;;;;;9.90;3.60;;;9.90;83.10;;;;;;5053565;28;20041;-83
2021/03/29 05:36:38;;;;;;;12.30;3.90;;;10.00;83.20;;;;;;5036692;28;20053;-83
2021/03/29 05:39:05;;;;;;;10.43;3.50;;;9.90;83.10;;;;;;5069566;28;20083;-83
2021/03/29 05:41:31;;;;;;;13.25;3.38;;;10.00;83.30;;;;;;5032070;28;20025;-83
2021/03/29 05:43:57;;;;;;;9.25;3.38;;;10.00;83.20;;;;;;5013765;28;20036;-85
2021/03/29 05:46:22;;;;;;;9.77;4.75;;;10.00;83.20;;;;;;5055923;28;20468;-83
2021/03/29 05:48:48;;;;;;;9.85;3.65;;;10.00;83.20;;;;;;5022978;28;20183;-82
2021/03/29 05:51:14;;;;;;;9.63;3.22;;;10.00;83.50;;;;;;5035976;28;20392;-82
2021/03/29 05:53:40;;;;;;;13.60;3.95;;;10.00;83.60;;;;;;5063804;28;20036;-83
2021/03/29 05:56:08;;;;;;;14.15;3.42;;;10.00;83.60;;;;;;5035429;28;20090;-83
2021/03/29 05:58:40;;;;;;;10.10;2.80;;;10.00;83.80;;;;;;5044138;28;20165;-84
2021/03/29 06:01:06;;;;;;;8.68;2.95;;;10.00;83.80;;;;;;5025750;28;20036;-83
2021/03/29 06:03:34;;;;;;;9.57;4.10;;;10.00;83.80;;;;;;5022303;28;20037;-83
2021/03/29 06:06:17;;;;;;;11.32;3.83;;;10.00;83.70;;;;;;5045085;28;20033;-83
2021/03/29 06:08:49;;;;;;;10.40;3.22;;;10.10;83.70;;;;;;5052037;28;20028;-82
2021/03/29 06:11:25;;;;;;;9.25;2.85;;;10.10;83.60;;;;;;5035887;28;20024;-83
2021/03/29 06:14:08;;;;;;;15.65;3.42;;;10.10;83.70;;;;;;5060053;28;20085;-84
2021/03/29 06:16:59;;;;;;;9.65;3.40;;;10.10;83.70;;;;;;5048639;28;20032;-85
2021/03/29 06:19:58;;;;;;;12.30;3.65;;;10.10;83.50;;;;;;5045168;28;20029;-83
2021/03/29 06:22:31;;;;;;;10.02;3.00;;;10.20;83.60;;;;;;5048366;28;20025;-82
2021/03/29 06:25:15;;;;;;;9.07;3.70;;;10.20;83.50;;;;;;5044910;28;20039;-82
2021/03/29 06:27:46;;;;;;;12.02;3.45;;;10.20;83.50;;;;;;5046949;28;20128;-82
2021/03/29 06:30:12;;;;;;;;;;;10.20;83.70;;;;;;5044865;28;20056;-86
2021/03/29 06:32:38;;;;;;;8.13;3.15;;;10.20;83.90;;;;;;5054289;28;20348;-83
2021/03/29 06:35:18;;;;;;;12.55;3.72;;;10.20;83.80;;;;;;5020705;28;20040;-83
2021/03/29 06:37:43;;;;;;;13.20;3.55;;;10.20;83.70;;;;;;5031973;28;20024;-82
2021/03/29 06:40:10;;;;;;;13.00;3.85;;;10.20;83.60;;;;;;5020938;28;20551;-84
2021/03/29 06:42:36;;;;;;;8.20;3.20;;;10.20;83.80;;;;;;5052450;28;20030;-83
2021/03/29 06:45:16;;;;;;;11.60;3.42;;;10.20;83.60;;;;;;5028594;28;20635;-84
2021/03/29 06:47:43;;;;;;;13.30;4.30;;;10.20;83.80;;;;;;5035323;28;20029;-83
2021/03/29 06:50:25;;;;;;;9.23;2.97;;;10.30;83.90;;;;;;5066745;28;20017;-84
2021/03/29 06:52:52;;;;;;;12.95;3.13;;;10.20;84.00;;;;;;5049446;28;20025;-84
2021/03/29 06:55:27;;;;;;;11.20;4.20;;;10.30;84.00;;;;;;5044212;28;20411;-83
2021/03/29 06:58:03;;;;;;;10.30;3.50;;;10.20;84.30;;;;;;5038358;28;20028;-84
2021/03/29 07:00:30;;;;;;;10.20;3.33;;;10.30;84.30;;;;;;5055428;28;20052;-82
2021/03/29 07:03:00;;;;;;;9.57;3.08;;;10.30;84.30;;;;;;5059507;28;20032;-85
2021/03/29 07:05:27;;;;;;;10.52;3.50;;;10.30;84.10;;;;;;5062471;28;20016;-83
2021/03/29 07:07:53;;;;;;;11.73;3.90;;;10.40;84.30;;;;;;5077066;28;20542;-83
2021/03/29 07:10:19;;;;;;;10.48;3.58;;;10.40;84.40;;;;;;5027024;28;20024;-84
2021/03/29 07:12:46;;;;;;;10.15;3.83;;;10.40;84.30;;;;;;5050003;28;20031;-86
2021/03/29 07:15:13;;;;;;;10.85;3.72;;;10.40;84.50;;;;;;5072551;28;20028;-88
2021/03/29 07:17:44;;;;;;;11.18;4.13;;;10.40;84.20;;;;;;5059881;28;20032;-85
2021/03/29 07:20:13;;;;;;;13.90;3.97;;;10.50;84.00;;;;;;5073189;28;20020;-86
2021/03/29 07:22:40;;;;;;;10.48;3.70;;;10.50;84.00;;;;;;5068670;28;20021;-82
2021/03/29 07:25:12;;;;;;;8.18;3.17;;;10.50;83.80;;;;;;5079665;28;20021;-84
2021/03/29 07:27:54;;;;;;;10.95;3.50;;;10.60;83.80;;;;;;5065217;28;20009;-91
2021/03/29 07:30:39;;;;;;;;;;;10.60;83.60;;;;;;5064246;28;20031;-82
2021/03/29 07:33:06;;;;;;;9.82;3.42;;;10.60;83.90;;;;;;5038930;28;20295;-82
2021/03/29 07:35:54;;;;;;;12.60;3.45;;;10.70;83.70;;;;;;5067510;28;20052;-85
2021/03/29 07:38:26;;;;;;;12.50;3.30;;;10.70;83.70;;;;;;5013398;28;20029;-82
2021/03/29 07:40:58;;;;;;;10.32;3.08;;;10.80;83.30;;;;;;5017100;28;20035;-82
2021/03/29 07:43:26;;;;;;;12.82;3.38;;;10.90;83.60;;;;;;5025473;28;20766;-82
2021/03/29 07:46:07;;;;;;;9.05;3.30;;;10.90;83.70;;;;;;5052330;28;20123;-82
2021/03/29 07:48:37;;;;;;;10.73;3.83;;;11.00;83.60;;;;;;5048264;28;20052;-82
2021/03/29 07:51:08;;;;;;;8.03;3.23;;;11.10;82.80;;;;;;5026979;28;20104;-83
2021/03/29 07:53:42;;;;;;;17.05;4.05;;;11.20;83.20;;;;;;5034150;28;20037;-82
2021/03/29 07:56:09;;;;;;;13.77;4.18;;;11.20;82.80;;;;;;5017984;28;20035;-82
2021/03/29 07:58:46;;;;;;;10.05;4.13;;;11.30;82.40;;;;;;5006241;28;20026;-82
2021/03/29 08:01:14;;;;;;;14.50;4.20;;;11.40;82.70;;;;;;5051613;28;20017;-82
2021/03/29 08:03:44;;;;;;;11.10;3.10;;;11.50;82.00;;;;;;5022565;28;20437;-82
2021/03/29 08:06:36;;;;;;;8.63;3.00;;;11.50;82.40;;;;;;5028296;28;20037;-81
2021/03/29 08:09:03;;;;;;;8.10;3.17;;;11.60;81.40;;;;;;5023317;28;20029;-82
2021/03/29 08:11:53;;;;;;;10.55;3.08;;;11.70;81.70;;;;;;5017479;28;20029;-83
2021/03/29 08:14:52;;;;;;;13.38;3.13;;;11.80;81.60;;;;;;5033484;28;20032;-82
2021/03/29 08:17:48;;;;;;;12.05;2.92;;;11.80;81.60;;;;;;5033577;28;20095;-83
2021/03/29 08:20:18;;;;;;;12.75;4.20;;;12.00;81.50;;;;;;5021924;28;20028;-82
2021/03/29 08:22:44;;;;;;;7.57;2.53;;;12.10;80.80;;;;;;5031274;28;20061;-82
2021/03/29 08:25:29;;;;;;;10.75;2.70;;;12.10;80.60;;;;;;5005575;28;20052;-82
2021/03/29 08:27:57;;;;;;;8.20;2.90;;;12.20;81.00;;;;;;5020433;28;20025;-82
2021/03/29 08:30:23;;;;;;;10.65;3.10;;;12.30;80.60;;;;;;5014462;28;20049;-86
2021/03/29 08:32:49;;;;;;;10.75;3.13;;;12.40;79.90;;;;;;5034297;28;20028;-81
2021/03/29 08:35:18;;;;;;;8.75;3.53;;;12.40;79.40;;;;;;5035709;28;20072;-81
2021/03/29 08:37:52;;;;;;;7.97;3.28;;;12.50;79.80;;;;;;5043152;28;20124;-82
2021/03/29 08:40:22;;;;;;;9.90;2.92;;;12.60;78.50;;;;;;5052297;28;20059;-82
2021/03/29 08:42:50;;;;;;;11.25;3.53;;;12.70;79.80;;;;;;5069841;28;20029;-84
2021/03/29 08:45:26;;;;;;;8.27;2.80;;;12.90;79.00;;;;;;5070061;28;20085;-88
2021/03/29 08:47:54;;;;;;;9.82;3.20;;;13.00;78.70;;;;;;5039018;28;20096;-81
2021/03/29 08:50:34;;;;;;;12.10;3.22;;;13.00;77.20;;;;;;5046960;28;20021;-82
2021/03/29 08:53:08;;;;;;;10.77;3.65;;;13.10;76.90;;;;;;5065412;28;20481;-81
2021/03/29 08:55:36;;;;;;;11.63;3.25;;;13.20;76.90;;;;;;5041297;28;20033;-80
2021/03/29 08:58:04;;;;;;;10.32;3.60;;;13.30;75.30;;;;;;5051609;28;20085;-82
2021/03/29 09:00:36;;;;;;;14.73;3.35;;;13.40;75.40;;;;;;5058499;28;20112;-81
2021/03/29 09:03:01;;;;;;;;;;;13.50;75.60;;;;;;5046922;28;20055;-80
2021/03/29 09:05:27;;;;;;;7.88;3.25;;;13.60;76.10;;;;;;5063408;28;19954;-84
2021/03/29 09:07:54;;;;;;;7.90;2.88;;;13.70;76.00;;;;;;5060885;28;20052;-83
2021/03/29 09:10:22;;;;;;;9.50;3.03;;;13.80;74.50;;;;;;5049091;28;20029;-82
2021/03/29 09:13:11;;;;;;;9.35;3.22;;;13.90;74.50;;;;;;5056841;28;20537;-83
2021/03/29 09:15:42;;;;;;;8.85;3.35;;;14.00;73.90;;;;;;5055352;28;20072;-82
2021/03/29 09:18:09;;;;;;;7.63;2.63;;;14.10;72.60;;;;;;5044949;28;20792;-81
2021/03/29 09:20:38;;;;;;;11.73;3.35;;;14.20;72.20;;;;;;5050180;28;20111;-83
2021/03/29 09:23:06;;;;;;;7.65;3.03;;;14.40;71.00;;;;;;5050202;28;20111;-78
2021/03/29 09:25:36;;;;;;;10.35;3.10;;;14.40;69.80;;;;;;5042833;28;20024;-79
2021/03/29 09:28:23;;;;;;;10.80;3.40;;;14.50;70.00;;;;;;5047993;28;20123;-81
2021/03/29 09:30:51;;;;;;;9.95;2.92;;;14.60;68.20;;;;;;5055061;28;20025;-81
2021/03/29 09:33:19;;;;;;;8.63;2.83;;;14.70;67.80;;;;;;5050259;28;20039;-82
2021/03/29 09:35:46;;;;;;;11.60;2.65;;;14.80;67.90;;;;;;5051731;28;20057;-81
2021/03/29 09:38:14;;;;;;;10.75;3.38;;;14.90;68.60;;;;;;5049788;28;20020;-82
2021/03/29 09:40:40;;;;;;;9.05;2.90;;;15.00;67.70;;;;;;5070773;28;20029;-81
2021/03/29 09:43:18;;;;;;;7.25;2.78;;;15.20;66.70;;;;;;5065271;28;20058;-82
2021/03/29 09:45:43;;;;;;;8.82;2.25;;;15.20;65.70;;;;;;5048747;28;20469;-84
2021/03/29 09:48:10;;;;;;;8.90;3.10;;;15.40;65.10;;;;;;5033516;28;20083;-82
2021/03/29 09:50:41;;;;;;;9.10;2.58;;;15.50;64.50;;;;;;5047479;28;20094;-83
2021/03/29 09:53:24;;;;;;;7.97;2.60;;;15.60;65.00;;;;;;5058851;28;20053;-82
2021/03/29 09:55:51;;;;;;;5.68;2.47;;;15.70;64.00;;;;;;5037242;28;20027;-88
2021/03/29 09:58:31;;;;;;;7.82;2.60;;;15.80;64.80;;;;;;5053534;28;20024;-93
2021/03/29 10:01:01;;;;;;;8.32;2.97;;;16.00;63.20;;;;;;5046629;28;20051;-81
2021/03/29 10:03:30;;;;;;;6.50;2.80;;;16.10;62.40;;;;;;5047360;28;20039;-82
2021/03/29 10:05:56;;;;;;;9.02;2.78;;;16.20;63.70;;;;;;5048458;28;20061;-86
2021/03/29 10:08:30;;;;;;;7.47;2.97;;;16.30;60.30;;;;;;5039117;28;20025;-82
2021/03/29 10:11:07;;;;;;;9.70;2.92;;;16.40;60.40;;;;;;5063538;28;20028;-85
2021/03/29 10:13:36;;;;;;;7.82;2.85;;;16.50;57.70;;;;;;5033731;28;20043;-83
2021/03/29 10:16:25;;;;;;;10.07;2.70;;;16.60;58.60;;;;;;5044902;28;20016;-81
2021/03/29 10:19:07;;;;;;;10.75;2.60;;;16.70;59.40;;;;;;5041990;28;20468;-81
2021/03/29 10:21:54;;;;;;;10.15;2.67;;;16.80;58.50;;;;;;5046036;28;20016;-82
2021/03/29 10:24:20;;;;;;;6.50;2.58;;;16.90;57.70;;;;;;5065499;28;20023;-88
2021/03/29 10:26:56;;;;;;;7.78;2.67;;;17.00;55.40;;;;;;5018115;28;20025;-82
2021/03/29 10:29:39;;;;;;;8.82;2.53;;;17.10;55.40;;;;;;5024414;28;20028;-82
2021/03/29 10:32:08;;;;;;;10.95;3.03;;;17.20;55.70;;;;;;5044597;28;20040;-81
2021/03/29 10:34:37;;;;;;;7.50;2.65;;;17.20;56.10;;;;;;5040057;28;20037;-82
2021/03/29 10:37:04;;;;;;;10.25;2.90;;;17.40;57.40;;;;;;5071365;28;20053;-82
2021/03/29 10:39:30;;;;;;;7.43;2.85;;;17.50;55.20;;;;;;5054606;28;20024;-82
2021/03/29 10:41:55;;;;;;;8.35;2.80;;;17.60;54.60;;;;;;5054162;28;20032;-82
2021/03/29 10:44:21;;;;;;;5.47;2.42;;;17.70;54.10;;;;;;5011366;28;20029;-88
2021/03/29 10:46:47;;;;;;;8.15;2.85;;;17.80;53.80;;;;;;5042714;28;20031;-83
2021/03/29 10:49:12;;;;;;;11.00;4.03;;;17.90;53.60;;;;;;5004790;28;20111;-81
2021/03/29 10:51:38;;;;;;;7.90;2.97;;;18.00;53.10;;;;;;5045130;28;20544;-81
2021/03/29 10:54:10;;;;;;;7.10;2.70;;;18.10;54.20;;;;;;5037790;28;20037;-83
2021/03/29 10:56:36;;;;;;;8.02;2.65;;;18.20;55.10;;;;;;5031631;28;20471;-81
2021/03/29 10:59:01;;;;;;;10.70;3.67;;;18.40;55.40;;;;;;5019468;28;20025;-81
2021/03/29 11:01:27;;;;;;;6.95;2.90;;;18.50;52.00;;;;;;5019071;28;20043;-82
2021/03/29 11:03:53;;;;;;;9.23;3.10;;;18.50;52.00;;;;;;5061939;28;20101;-84
2021/03/29 11:06:18;;;;;;;9.05;3.25;;;18.60;50.50;;;;;;5049787;28;20025;-85
2021/03/29 11:08:44;;;;;;;10.35;3.72;;;18.60;51.00;;;;;;5023556;28;20452;-80
2021/03/29 11:11:09;;;;;;;7.18;2.85;;;18.60;49.60;;;;;;5057481;28;20035;-80
2021/03/29 11:13:35;;;;;;;10.10;3.25;;;18.70;49.40;;;;;;5041419;28;20063;-81
2021/03/29 11:16:02;;;;;;;8.25;2.83;;;18.70;49.90;;;;;;5050354;28;20052;-80
2021/03/29 11:18:27;;;;;;;10.57;3.10;;;18.80;50.00;;;;;;5020290;28;20036;-80
2021/03/29 11:20:55;;;;;;;13.15;2.70;;;18.80;49.80;;;;;;5019843;28;20195;-82
2021/03/29 11:23:25;;;;;;;10.23;3.30;;;18.90;50.70;;;;;;5070880;28;20483;-80
2021/03/29 11:25:51;;;;;;;11.65;3.33;;;19.00;49.60;;;;;;5037587;28;20059;-80
2021/03/29 11:28:16;;;;;;;9.98;2.80;;;19.10;49.10;;;;;;5045948;28;20071;-81
2021/03/29 11:30:42;;;;;;;7.45;2.70;;;19.20;48.60;;;;;;5045733;28;20050;-81
2021/03/29 11:33:08;;;;;;;6.15;2.75;;;19.20;48.20;;;;;;5051047;28;20039;-82
2021/03/29 11:35:33;;;;;;;7.20;2.53;;;19.30;48.20;;;;;;5047273;28;20036;-81
2021/03/29 11:37:59;;;;;;;6.78;2.97;;;19.30;48.20;;;;;;5034780;28;20032;-82
2021/03/29 11:40:24;;;;;;;5.85;2.50;;;19.40;48.70;;;;;;5066074;28;20040;-81
2021/03/29 11:42:50;;;;;;;7.65;3.00;;;19.60;49.50;;;;;;5053274;28;20029;-83
2021/03/29 11:45:16;;;;;;;8.82;2.58;;;19.70;48.10;;;;;;5031498;28;20393;-80
2021/03/29 11:47:42;;;;;;;9.35;3.47;;;19.90;47.40;;;;;;5043898;28;20330;-80
2021/03/29 11:50:13;;;;;;;8.20;2.50;;;20.00;46.00;;;;;;5035340;28;20025;-82
2021/03/29 11:52:39;;;;;;;5.70;2.08;;;20.10;47.70;;;;;;5048013;28;20044;-81
2021/03/29 11:55:07;;;;;;;8.45;2.72;;;20.20;48.10;;;;;;5028603;28;20098;-79
2021/03/29 11:57:32;;;;;;;8.40;3.13;;;20.30;47.00;;;;;;5043585;28;20033;-80
2021/03/29 11:59:59;;;;;;;5.80;2.45;;;20.40;45.20;;;;;;5071095;28;20370;-80
2021/03/29 12:02:30;;;;;;;5.78;2.67;;;20.50;47.90;;;;;;5049104;28;20106;-79
2021/03/29 12:07:46;;;;;;;7.47;2.42;;;20.70;45.90;;;;;;5071608;28;20308;-79
2021/03/29 12:12:41;;;;;;;7.00;2.80;;;21.00;46.00;;;;;;5071833;28;20369;-80
2021/03/29 12:15:13;;;;;;;6.63;2.50;;;21.00;46.00;;;;;;5064663;28;20025;-79
2021/03/29 12:17:42;;;;;;;7.45;2.72;;;21.10;46.90;;;;;;5057031;28;20025;-81
2021/03/29 12:20:11;;;;;;;7.65;2.20;;;21.20;45.20;;;;;;5057065;28;20454;-80
2021/03/29 12:22:38;;;;;;;8.18;3.05;;;21.30;46.00;;;;;;5063331;28;20060;-80
2021/03/29 12:25:05;;;;;;;7.10;2.83;;;21.40;43.70;;;;;;5075000;28;20047;-79
2021/03/29 12:27:31;;;;;;;5.85;2.33;;;21.40;44.50;;;;;;5040915;28;20075;-86
2021/03/29 12:30:03;;;;;;;6.30;2.65;;;21.60;43.90;;;;;;5051863;28;20811;-83
2021/03/29 12:32:29;;;;;;;6.72;2.60;;;21.70;44.90;;;;;;5045532;28;20036;-90
2021/03/29 12:34:58;;;;;;;11.45;3.20;;;21.80;44.70;;;;;;5055592;28;20107;-81
2021/03/29 12:37:31;;;;;;;7.72;2.80;;;21.90;44.70;;;;;;5024636;28;20048;-81
2021/03/29 12:40:04;;;;;;;6.82;2.65;;;22.00;43.00;;;;;;5025259;28;20036;-86
2021/03/29 12:42:31;;;;;;;5.97;2.67;;;22.00;43.40;;;;;;5033429;28;20058;-80
2021/03/29 12:44:57;;;;;;;10.27;3.47;;;22.20;42.90;;;;;;5050216;28;20029;-81
2021/03/29 12:47:28;;;;;;;7.82;2.80;;;22.30;43.50;;;;;;5068751;28;20100;-82
2021/03/29 12:49:54;;;;;;;7.45;2.85;;;22.30;40.50;;;;;;5052396;28;20475;-81
2021/03/29 12:52:20;;;;;;;8.52;2.83;;;22.40;41.30;;;;;;5037836;28;20025;-81
2021/03/29 12:54:47;;;;;;;6.10;2.70;;;22.40;40.10;;;;;;5047753;28;20033;-81
2021/03/29 12:57:13;;;;;;;5.32;2.15;;;22.60;40.90;;;;;;5025069;28;20024;-82